Time;durP1;ratioP1;P1;durP2;ratioP2;P2;SDS_P1;SDS_P2;PMS_P1;PMS_P2;Temp;Humidity;BMP_temperature;BMP_pressure;BME280_temperature;BME280_humidity;BME280_pressure;Samples;Min_cycle;Max_cycle;Signal;HPM_P1;HPM_P2
2022/08/23 00:02:16;;;;;;;6.77;3.80;;;;;;;19.07;56.14;98456.03;4990389;28;20422;-54
2022/08/23 00:04:43;;;;;;;5.43;3.97;;;;;;;18.93;56.81;98461.34;4991155;28;20302;-53
2022/08/23 00:07:12;;;;;;;8.07;3.83;;;;;;;18.84;57.73;98470.53;4990536;28;20673;-52
2022/08/23 00:09:39;;;;;;;5.17;4.23;;;;;;;18.84;57.47;98468.69;4991067;28;20246;-54
2022/08/23 00:12:14;;;;;;;6.70;3.73;;;;;;;18.69;57.76;98462.81;4989128;28;20224;-53
2022/08/23 00:14:43;;;;;;;6.00;3.83;;;;;;;18.69;57.58;98468.13;4990900;28;20235;-54
2022/08/23 00:17:12;;;;;;;6.83;3.90;;;;;;;18.59;58.26;98458.78;4990255;28;20759;-52
2022/08/23 00:19:39;;;;;;;7.47;4.23;;;;;;;18.56;58.45;98461.03;4990773;28;20231;-52
2022/08/23 00:22:06;;;;;;;6.50;3.57;;;;;;;18.49;58.74;98457.59;4989772;28;20335;-55
2022/08/23 00:24:33;;;;;;;4.00;3.60;;;;;;;18.38;59.39;98462.50;4990640;28;20231;-52
2022/08/23 00:27:11;;;;;;;6.17;4.20;;;;;;;18.34;59.79;98466.56;4978005;28;20219;-53
2022/08/23 00:29:48;;;;;;;6.47;3.90;;;;;;;18.24;59.79;98463.53;4987860;28;20242;-52
2022/08/23 00:32:20;;;;;;;3.93;3.53;;;;;;;18.13;59.89;98454.41;4988277;28;20238;-53
2022/08/23 00:34:47;;;;;;;6.67;4.03;;;;;;;18.08;60.08;98448.91;4988552;28;20316;-55
2022/08/23 00:37:14;;;;;;;6.23;4.17;;;;;;;18.03;60.25;98444.22;4988398;28;20751;-52
2022/08/23 00:39:41;;;;;;;8.00;3.87;;;;;;;18.02;60.31;98436.53;5005129;28;20587;-52
2022/08/23 00:47:42;;;;;;;4.77;3.87;;;;;;;17.97;60.62;98445.03;4989855;28;20309;-52
2022/08/23 00:50:26;;;;;;;4.20;3.43;;;;;;;17.96;60.62;98451.34;4988143;28;20253;-52
2022/08/23 00:53:02;;;;;;;4.47;4.00;;;;;;;17.98;60.62;98455.38;4988603;28;20939;-54
2022/08/23 00:55:29;;;;;;;5.60;3.90;;;;;;;17.90;61.19;98460.06;4989764;28;20283;-52
2022/08/23 00:57:57;;;;;;;5.70;4.27;;;;;;;17.76;62.16;98452.13;4989226;28;20301;-52
2022/08/23 01:00:25;;;;;;;5.77;4.00;;;;;;;17.68;62.25;98457.59;4989428;28;20238;-56
2022/08/23 01:02:54;;;;;;;6.50;4.03;;;;;;;17.65;61.66;98444.81;4988857;28;20262;-54
2022/08/23 01:05:25;;;;;;;6.37;4.13;;;;;;;17.62;61.96;98448.66;4989798;28;20589;-52
2022/08/23 01:07:55;;;;;;;5.53;4.30;;;;;;;17.68;62.30;98444.41;4976329;28;20258;-53
2022/08/23 01:10:28;;;;;;;5.70;4.03;;;;;;;17.58;62.55;98446.63;5003363;28;20237;-55
2022/08/23 01:13:02;;;;;;;4.97;4.20;;;;;;;17.52;63.02;98449.03;4987514;28;20764;-51
2022/08/23 01:15:35;;;;;;;5.50;4.07;;;;;;;17.59;62.83;98450.88;4977818;28;20584;-54
2022/08/23 01:18:07;;;;;;;4.93;4.13;;;;;;;17.46;62.83;98451.69;4987679;28;20255;-53
2022/08/23 01:20:41;;;;;;;6.03;4.20;;;;;;;17.37;63.12;98454.50;4981435;28;20288;-53
2022/08/23 01:23:21;;;;;;;5.77;4.07;;;;;;;17.27;63.70;98446.16;5002840;28;20232;-54
2022/08/23 01:25:48;;;;;;;6.83;4.27;;;;;;;17.20;63.22;98454.03;4988832;28;20254;-53
2022/08/23 01:28:17;;;;;;;5.73;3.77;;;;;;;17.20;62.99;98445.31;4988679;28;20284;-52
2022/08/23 01:30:47;;;;;;;5.63;3.60;;;;;;;17.18;63.31;98448.16;5004836;28;20235;-52
2022/08/23 01:33:18;;;;;;;5.20;3.97;;;;;;;17.18;63.85;98450.78;4976760;28;20232;-52
2022/08/23 01:35:49;;;;;;;7.03;4.00;;;;;;;17.16;63.42;98455.44;4980664;28;20683;-51
2022/08/23 01:38:16;;;;;;;6.13;4.07;;;;;;;17.18;63.75;98453.41;4989397;28;20258;-54
2022/08/23 01:40:45;;;;;;;4.53;3.80;;;;;;;17.16;63.73;98446.72;4988575;28;20236;-52
2022/08/23 01:43:13;;;;;;;4.00;3.53;;;;;;;17.16;63.47;98449.38;4989066;28;20594;-53
2022/08/23 01:45:42;;;;;;;4.80;3.80;;;;;;;17.08;64.09;98458.25;4976741;28;20722;-54
2022/08/23 01:48:11;;;;;;;4.37;3.50;;;;;;;17.25;62.90;98461.38;4976814;28;20689;-55
2022/08/23 01:50:38;;;;;;;6.33;3.83;;;;;;;17.17;64.63;98469.47;4978619;28;20725;-55
2022/08/23 01:53:06;;;;;;;6.60;3.83;;;;;;;17.07;64.49;98460.09;4991258;28;20266;-53
2022/08/23 01:55:33;;;;;;;5.77;4.10;;;;;;;17.02;64.15;98465.13;5008381;28;20234;-55
2022/08/23 01:58:04;;;;;;;6.27;4.10;;;;;;;16.96;64.11;98466.72;5007862;28;20238;-54
2022/08/23 02:00:35;;;;;;;6.73;3.70;;;;;;;16.91;64.58;98463.03;5007898;28;20230;-54
2022/08/23 02:03:02;;;;;;;7.97;4.13;;;;;;;16.94;64.36;98466.09;4990209;28;20267;-52
2022/08/23 02:05:31;;;;;;;5.90;4.17;;;;;;;16.87;64.72;98459.97;4982709;28;20275;-52
2022/08/23 02:08:59;;;;;;;5.37;4.00;;;;;;;16.81;64.65;98461.56;4981428;28;20230;-53
2022/08/23 02:10:46;;;;;;;7.73;3.93;;;;;;;16.81;65.40;98468.66;4980481;28;20233;-54
2022/08/23 02:13:15;;;;;;;5.67;4.40;;;;;;;16.72;65.43;98472.47;4997444;28;20334;-55
2022/08/23 02:15:43;;;;;;;4.73;3.87;;;;;;;16.75;65.34;98474.72;4982805;28;20761;-52
2022/08/23 02:18:10;;;;;;;5.23;4.30;;;;;;;16.66;65.88;98479.31;4975774;28;20230;-52
2022/08/23 02:20:56;;;;;;;4.60;4.10;;;;;;;16.61;66.25;98487.81;4990987;28;20232;-51
2022/08/23 02:23:23;;;;;;;5.57;4.20;;;;;;;16.56;66.25;98492.84;4980261;28;20238;-52
2022/08/23 02:25:50;;;;;;;6.27;4.13;;;;;;;16.54;66.62;98492.22;4990217;28;20297;-52
2022/08/23 02:28:21;;;;;;;6.90;4.20;;;;;;;16.53;66.85;98499.31;4991561;28;20231;-51
2022/08/23 02:30:48;;;;;;;5.77;4.10;;;;;;;16.53;66.57;98499.31;4990848;28;20226;-54
2022/08/23 02:33:16;;;;;;;6.33;4.03;;;;;;;16.48;67.34;98499.06;4990852;28;20230;-53
2022/08/23 02:35:43;;;;;;;5.43;4.40;;;;;;;16.50;67.21;98498.88;4989749;28;20315;-54
2022/08/23 02:38:12;;;;;;;8.53;4.13;;;;;;;16.42;67.42;98496.41;4988656;28;20663;-53
2022/08/23 02:40:41;;;;;;;5.83;4.47;;;;;;;16.35;67.42;98506.91;4991082;28;20241;-54
2022/08/23 02:43:09;;;;;;;6.27;4.13;;;;;;;16.34;68.33;98508.69;4990284;28;20292;-53
2022/08/23 02:45:38;;;;;;;4.43;3.70;;;;;;;16.26;68.50;98503.56;4992411;28;20242;-51
2022/08/23 02:48:06;;;;;;;6.40;4.30;;;;;;;16.26;68.49;98513.31;4980931;28;20396;-55
2022/08/23 02:50:43;;;;;;;5.37;4.17;;;;;;;16.23;68.42;98514.50;4990582;28;20230;-51
2022/08/23 02:53:09;;;;;;;6.53;4.47;;;;;;;16.23;69.07;98519.75;5006483;28;20231;-52
2022/08/23 02:55:38;;;;;;;6.67;4.00;;;;;;;16.19;68.82;98511.44;4978436;28;20325;-55
2022/08/23 02:58:05;;;;;;;6.37;4.63;;;;;;;16.14;69.25;98515.63;4990248;28;20228;-52
2022/08/23 03:00:32;;;;;;;5.13;4.10;;;;;;;16.11;69.47;98514.19;4989903;28;20249;-54
2022/08/23 03:03:00;;;;;;;5.90;4.27;;;;;;;16.07;69.85;98507.69;4989709;28;20293;-52
2022/08/23 03:05:28;;;;;;;5.20;4.40;;;;;;;16.00;70.29;98517.34;4982256;28;20238;-51
2022/08/23 03:07:55;;;;;;;6.97;4.50;;;;;;;16.02;70.41;98516.13;4977489;28;20239;-55
2022/08/23 03:10:22;;;;;;;5.73;4.47;;;;;;;15.95;69.99;98517.88;4990633;28;20670;-51
2022/08/23 03:12:55;;;;;;;5.47;4.47;;;;;;;15.94;70.38;98517.09;5004506;28;20316;-54
2022/08/23 03:15:22;;;;;;;7.07;4.30;;;;;;;15.88;71.08;98517.03;4990518;28;20238;-54
2022/08/23 03:17:50;;;;;;;6.47;4.30;;;;;;;15.83;70.95;98514.91;4980442;28;20238;-52
2022/08/23 03:20:19;;;;;;;6.50;4.60;;;;;;;15.84;71.50;98511.28;4980093;28;20234;-53
2022/08/23 03:22:47;;;;;;;5.87;4.33;;;;;;;15.82;71.64;98523.03;4981168;28;20568;-55
2022/08/23 03:25:14;;;;;;;5.17;4.40;;;;;;;15.81;71.02;98519.56;4994307;28;20233;-52
2022/08/23 03:28:03;;;;;;;6.10;4.83;;;;;;;15.72;71.56;98520.69;4979673;28;20261;-52
2022/08/23 03:30:32;;;;;;;7.10;4.73;;;;;;;15.74;71.93;98523.94;4974011;28;20324;-52
2022/08/23 03:33:00;;;;;;;6.63;4.50;;;;;;;15.65;72.24;98528.50;4978103;28;20876;-51
2022/08/23 03:35:30;;;;;;;4.77;3.67;;;;;;;15.69;72.89;98528.94;4990314;28;20313;-52
2022/08/23 03:37:57;;;;;;;5.33;3.90;;;;;;;15.61;73.20;98530.69;4980116;28;20253;-54
2022/08/23 03:40:24;;;;;;;5.17;4.00;;;;;;;15.60;73.30;98534.31;5006540;28;20279;-53
2022/08/23 03:42:51;;;;;;;9.13;3.93;;;;;;;15.53;73.30;98535.25;4976372;28;20287;-53
2022/08/23 03:45:20;;;;;;;8.40;4.60;;;;;;;15.47;73.97;98542.88;4988701;28;20225;-52
2022/08/23 03:47:48;;;;;;;7.27;4.07;;;;;;;15.48;73.87;98536.63;4977041;28;20221;-51
2022/08/23 03:50:16;;;;;;;6.07;4.07;;;;;;;15.44;74.14;98545.06;4980257;28;20237;-53
2022/08/23 03:52:45;;;;;;;6.07;3.90;;;;;;;15.41;74.24;98543.63;4989648;28;20308;-54
2022/08/23 03:55:13;;;;;;;6.53;4.27;;;;;;;15.38;74.78;98543.16;4988438;28;20247;-51
2022/08/23 03:57:44;;;;;;;7.10;3.90;;;;;;;15.30;74.62;98537.03;4989758;28;20227;-52
2022/08/23 04:00:13;;;;;;;9.03;4.40;;;;;;;15.29;75.04;98534.56;4990796;28;20677;-53
2022/08/23 04:02:46;;;;;;;7.60;4.07;;;;;;;15.26;75.26;98542.81;4972634;28;20243;-51
2022/08/23 04:05:13;;;;;;;5.80;3.73;;;;;;;15.23;75.33;98541.38;4994901;28;20316;-53
2022/08/23 04:08:09;;;;;;;5.17;3.70;;;;;;;15.21;75.63;98546.00;4990852;28;20230;-55
2022/08/23 04:10:38;;;;;;;8.60;3.80;;;;;;;15.24;75.89;98550.06;4989202;28;20712;-54
2022/08/23 04:13:07;;;;;;;4.87;3.83;;;;;;;15.23;75.47;98541.38;4989006;28;20235;-54
2022/08/23 04:15:34;;;;;;;5.47;4.00;;;;;;;15.20;75.71;98547.81;4976445;28;20257;-55
2022/08/23 04:18:01;;;;;;;5.13;4.07;;;;;;;15.27;75.63;98555.81;4975932;28;20606;-52
2022/08/23 04:20:29;;;;;;;6.67;3.90;;;;;;;15.24;75.56;98556.16;4989462;28;20260;-54
2022/08/23 04:22:59;;;;;;;5.83;3.97;;;;;;;15.29;75.61;98556.44;4985826;28;20349;-52
2022/08/23 04:25:32;;;;;;;5.43;3.93;;;;;;;15.22;75.76;98559.97;4989653;28;20228;-52
2022/08/23 04:28:00;;;;;;;8.10;3.70;;;;;;;15.20;76.18;98560.97;5004801;28;20264;-53
2022/08/23 04:30:28;;;;;;;5.20;3.67;;;;;;;15.18;76.38;98560.31;4990718;28;20240;-54
2022/08/23 04:32:55;;;;;;;5.20;3.80;;;;;;;15.26;76.75;98566.50;4988150;28;20321;-54
2022/08/23 04:35:24;;;;;;;5.70;3.33;;;;;;;15.24;76.53;98573.75;4986880;28;20768;-53
2022/08/23 04:37:51;;;;;;;5.63;3.73;;;;;;;15.20;76.41;98574.09;4987285;28;20251;-52
2022/08/23 04:43:05;;;;;;;6.53;3.40;;;;;;;15.28;76.47;98580.28;4987268;28;20239;-52
2022/08/23 04:45:32;;;;;;;10.33;3.97;;;;;;;15.25;76.12;98580.63;4978966;28;20243;-52
2022/08/23 04:47:59;;;;;;;4.97;3.70;;;;;;;15.28;76.16;98575.00;5004593;28;20229;-52
2022/08/23 04:50:27;;;;;;;6.13;3.83;;;;;;;15.32;76.84;98576.28;4980610;28;20718;-55
2022/08/23 04:53:14;;;;;;;5.07;3.13;;;;;;;15.35;76.84;98586.44;4973848;28;20260;-53
2022/08/23 04:55:55;;;;;;;4.53;3.57;;;;;;;15.35;76.73;98587.25;4986252;28;20230;-51
2022/08/23 04:58:23;;;;;;;8.20;2.87;;;;;;;15.36;76.93;98585.44;4974351;28;20225;-51
2022/08/23 05:00:52;;;;;;;5.37;3.53;;;;;;;15.43;77.15;98591.59;4993649;28;20243;-54
2022/08/23 05:03:25;;;;;;;5.67;3.03;;;;;;;15.41;77.45;98593.59;4978286;28;20237;-53
2022/08/23 05:05:53;;;;;;;6.90;3.33;;;;;;;15.50;76.90;98595.13;4988233;28;20236;-51
2022/08/23 05:08:24;;;;;;;4.40;2.70;;;;;;;15.56;76.69;98603.28;5003212;28;20228;-52
2022/08/23 05:10:50;;;;;;;7.43;2.80;;;;;;;15.61;76.56;98600.91;4978376;28;20236;-51
2022/08/23 05:13:18;;;;;;;7.77;2.80;;;;;;;15.61;76.77;98598.28;4988524;28;20823;-51
2022/08/23 05:15:46;;;;;;;4.93;2.90;;;;;;;15.70;77.30;98610.34;4988711;28;20237;-52
2022/08/23 05:18:13;;;;;;;3.90;2.80;;;;;;;15.72;76.81;98613.59;4988157;28;20236;-53
2022/08/23 05:20:41;;;;;;;8.10;3.20;;;;;;;15.79;76.67;98614.50;4978177;28;20229;-53
2022/08/23 05:23:08;;;;;;;4.70;2.60;;;;;;;15.82;76.17;98609.88;4979785;28;20803;-55
2022/08/23 05:25:51;;;;;;;5.03;3.17;;;;;;;15.89;76.63;98614.22;4992597;28;20244;-54
2022/08/23 05:28:27;;;;;;;4.80;3.23;;;;;;;15.89;75.88;98622.13;5006874;28;20283;-54
2022/08/23 05:30:58;;;;;;;5.17;3.33;;;;;;;15.90;76.45;98625.59;4991677;28;20240;-55
2022/08/23 05:33:25;;;;;;;4.17;3.00;;;;;;;15.98;76.15;98622.00;4992423;28;20244;-54
2022/08/23 05:35:53;;;;;;;5.53;3.10;;;;;;;16.01;76.20;98625.06;4979286;28;20609;-52
2022/08/23 05:38:20;;;;;;;8.53;3.43;;;;;;;16.01;76.50;98630.34;4982573;28;20638;-52
2022/08/23 05:40:49;;;;;;;5.10;3.33;;;;;;;16.04;76.42;98629.16;4981817;28;20229;-53
2022/08/23 05:43:16;;;;;;;5.20;2.80;;;;;;;16.11;75.78;98630.06;4992085;28;20231;-52
2022/08/23 05:45:43;;;;;;;7.10;3.37;;;;;;;16.15;75.95;98627.84;4996166;28;20284;-52
2022/08/23 05:48:12;;;;;;;6.13;3.03;;;;;;;16.16;75.99;98630.31;4982812;28;20286;-52
2022/08/23 05:50:46;;;;;;;5.27;3.37;;;;;;;16.22;75.81;98634.84;5008663;28;20226;-52
2022/08/23 05:53:13;;;;;;;7.03;3.20;;;;;;;16.24;75.46;98634.63;5006825;28;20230;-53
2022/08/23 05:55:42;;;;;;;6.60;2.60;;;;;;;16.26;76.20;98637.88;5008274;28;20288;-53
2022/08/23 05:58:20;;;;;;;4.20;3.03;;;;;;;16.32;75.14;98642.41;4993390;28;20619;-52
2022/08/23 06:00:47;;;;;;;10.53;3.20;;;;;;;16.39;75.12;98647.75;4992110;28;20315;-53
2022/08/23 06:03:15;;;;;;;5.33;2.73;;;;;;;16.42;75.03;98644.75;4989742;28;20237;-53
2022/08/23 06:05:42;;;;;;;10.50;3.10;;;;;;;16.47;75.11;98647.59;4991881;28;20597;-52
2022/08/23 06:08:10;;;;;;;4.60;2.80;;;;;;;16.56;75.14;98648.31;4994903;28;20260;-53
2022/08/23 06:10:37;;;;;;;5.53;3.00;;;;;;;16.61;75.07;98650.38;4992854;28;20231;-52
2022/08/23 06:13:14;;;;;;;7.90;2.40;;;;;;;16.67;74.96;98660.16;4981102;28;20846;-54
2022/08/23 06:15:43;;;;;;;5.47;2.43;;;;;;;16.73;75.06;98661.22;4989443;28;20238;-52
2022/08/23 06:18:12;;;;;;;3.80;2.60;;;;;;;16.81;73.92;98663.72;4982617;28;20235;-53
2022/08/23 06:20:41;;;;;;;6.57;2.87;;;;;;;16.90;74.28;98657.31;4991598;28;20234;-54
2022/08/23 06:23:09;;;;;;;5.20;2.80;;;;;;;17.01;74.69;98663.06;4990381;28;20246;-52
2022/08/23 06:25:37;;;;;;;4.33;2.57;;;;;;;17.06;75.18;98661.50;4982530;28;20268;-52
2022/08/23 06:28:22;;;;;;;6.57;2.50;;;;;;;17.19;73.60;98668.69;4989927;28;20233;-52
2022/08/23 06:30:49;;;;;;;7.23;2.40;;;;;;;17.31;73.66;98665.50;4990257;28;20268;-54
2022/08/23 06:33:36;;;;;;;4.97;2.00;;;;;;;17.42;73.32;98662.34;4991228;28;20221;-52
2022/08/23 06:36:28;;;;;;;5.40;2.00;;;;;;;17.54;72.21;98671.34;5005239;28;20247;-52
2022/08/23 06:39:20;;;;;;;4.60;1.80;;;;;;;17.71;71.60;98673.66;4991105;28;20311;-52
2022/08/23 06:42:19;;;;;;;4.17;2.10;;;;;;;17.92;71.00;98674.56;4990443;28;20231;-53
2022/08/23 06:45:05;;;;;;;3.67;2.07;;;;;;;18.17;69.48;98680.16;4992019;28;20829;-55
2022/08/23 06:47:50;;;;;;;3.50;1.80;;;;;;;18.43;67.73;98699.75;4980202;28;20460;-53
2022/08/23 06:50:19;;;;;;;6.23;2.10;;;;;;;18.63;68.21;98702.41;4981293;28;20231;-53
2022/08/23 06:53:05;;;;;;;4.20;1.97;;;;;;;18.84;66.78;98692.66;4991069;28;20237;-52
2022/08/23 06:55:51;;;;;;;6.00;2.43;;;;;;;19.04;65.25;98697.97;4991673;28;20253;-52
2022/08/23 06:58:39;;;;;;;5.13;2.10;;;;;;;19.26;63.69;98698.56;4978839;28;20334;-54
2022/08/23 07:01:22;;;;;;;5.53;2.70;;;;;;;19.44;62.37;98697.09;4988202;28;20348;-55
2022/08/23 07:04:11;;;;;;;7.83;2.83;;;;;;;19.62;61.10;98705.22;4989488;28;20317;-55
2022/08/23 07:06:57;;;;;;;6.47;3.10;;;;;;;19.75;61.28;98712.28;4991175;28;20254;-54
2022/08/23 07:09:26;;;;;;;4.93;2.63;;;;;;;19.87;61.43;98709.84;5006603;28;20224;-53
2022/08/23 07:11:53;;;;;;;4.00;2.97;;;;;;;20.00;59.60;98708.97;4989318;28;20243;-53
2022/08/23 07:14:22;;;;;;;4.53;2.83;;;;;;;20.10;60.15;98707.72;4992063;28;20291;-52
2022/08/23 07:17:08;;;;;;;7.10;2.90;;;;;;;20.20;59.20;98710.72;4989647;28;22414;-52
2022/08/23 07:19:35;;;;;;;5.23;2.90;;;;;;;20.33;59.16;98710.66;4978278;28;20235;-55
2022/08/23 07:22:06;;;;;;;4.03;2.33;;;;;;;20.43;59.65;98707.53;4989686;28;20607;-54
2022/08/23 07:24:34;;;;;;;3.67;2.47;;;;;;;20.56;59.62;98716.44;4984061;28;20307;-54
2022/08/23 07:27:07;;;;;;;5.03;2.53;;;;;;;20.70;59.44;98714.50;4978650;28;20233;-52
2022/08/23 07:29:39;;;;;;;3.50;2.27;;;;;;;20.78;59.00;98706.31;4990148;28;20237;-52
2022/08/23 07:32:07;;;;;;;5.33;2.63;;;;;;;20.83;58.55;98713.66;4988330;28;20804;-52
2022/08/23 07:34:35;;;;;;;9.03;2.47;;;;;;;20.90;59.11;98704.59;4990130;28;20683;-53
2022/08/23 07:37:03;;;;;;;7.87;2.40;;;;;;;21.02;58.93;98711.84;4989174;28;20440;-55
2022/08/23 07:39:30;;;;;;;4.83;2.60;;;;;;;21.13;58.78;98718.31;4990163;28;20221;-53
2022/08/23 07:42:02;;;;;;;9.80;2.73;;;;;;;21.16;56.59;98720.53;4989094;28;20622;-53
2022/08/23 07:44:47;;;;;;;5.90;2.47;;;;;;;21.32;56.11;98716.50;4990443;28;20735;-55
2022/08/23 07:47:15;;;;;;;4.77;2.50;;;;;;;21.41;55.73;98724.97;4987404;28;20231;-55
2022/08/23 07:49:42;;;;;;;6.83;2.63;;;;;;;21.53;55.52;98718.75;4979578;28;20242;-54
2022/08/23 07:52:11;;;;;;;8.77;2.83;;;;;;;21.59;55.08;98725.00;4972356;28;20751;-52
2022/08/23 07:54:38;;;;;;;7.13;2.80;;;;;;;21.62;55.42;98721.09;4980143;28;20238;-54
2022/08/23 07:57:19;;;;;;;5.57;2.53;;;;;;;21.72;54.62;98720.63;4978002;28;20234;-51
2022/08/23 07:59:54;;;;;;;9.73;2.67;;;;;;;21.78;54.52;98725.84;4988432;28;20236;-52
2022/08/23 08:02:26;;;;;;;8.20;2.67;;;;;;;21.80;54.47;98729.09;4989725;28;20594;-53
2022/08/23 08:04:54;;;;;;;5.40;2.33;;;;;;;21.85;54.80;98730.25;4990469;28;20232;-52
2022/08/23 08:07:21;;;;;;;5.27;2.43;;;;;;;21.99;53.94;98734.41;5004699;28;20649;-52
2022/08/23 08:09:54;;;;;;;6.33;2.67;;;;;;;22.15;53.45;98740.13;4978843;28;20318;-52
2022/08/23 08:12:22;;;;;;;6.10;2.83;;;;;;;22.21;52.94;98739.25;4989386;28;20629;-51
2022/08/23 08:14:52;;;;;;;6.83;2.60;;;;;;;22.24;53.39;98736.97;4989980;28;20230;-52
2022/08/23 08:17:23;;;;;;;4.40;2.20;;;;;;;22.31;52.98;98736.03;5004778;28;20234;-55
2022/08/23 08:20:29;;;;;;;6.17;2.77;;;;;;;22.47;52.74;98735.44;4948090;28;20993;-52
2022/08/23 08:23:16;;;;;;;9.03;2.77;;;;;;;22.60;52.14;98738.97;4948722;29;20239;-55
2022/08/23 08:26:13;;;;;;;3.93;2.50;;;;;;;22.63;52.05;98741.16;4967813;28;20234;-52
2022/08/23 08:28:53;;;;;;;5.43;2.40;;;;;;;22.71;50.93;98743.50;4988031;28;20286;-54
2022/08/23 08:31:20;;;;;;;7.77;2.80;;;;;;;22.76;51.42;98740.97;4988013;28;20233;-52
2022/08/23 08:33:47;;;;;;;3.53;2.30;;;;;;;22.84;51.42;98747.81;4979244;28;20227;-55
2022/08/23 08:36:30;;;;;;;5.93;2.60;;;;;;;22.86;51.02;98743.06;5005030;28;20263;-56
2022/08/23 08:38:58;;;;;;;5.23;2.63;;;;;;;22.81;50.58;98746.41;4988453;28;20714;-52
2022/08/23 08:41:35;;;;;;;4.90;2.67;;;;;;;22.92;50.48;98742.16;5004969;28;20231;-53
2022/08/23 08:44:14;;;;;;;6.57;2.67;;;;;;;22.99;50.35;98747.38;4978900;28;20885;-52
2022/08/23 08:46:45;;;;;;;4.53;2.57;;;;;;;22.99;49.50;98748.19;4987827;28;20321;-52
2022/08/23 08:49:16;;;;;;;6.90;2.67;;;;;;;23.06;49.49;98750.75;4971598;28;20311;-54
2022/08/23 08:51:49;;;;;;;6.10;2.80;;;;;;;23.16;49.39;98758.16;4978895;28;20226;-54
2022/08/23 08:54:21;;;;;;;6.00;2.73;;;;;;;23.30;48.94;98753.47;4981414;28;20306;-52
2022/08/23 08:56:53;;;;;;;6.40;2.87;;;;;;;23.39;48.52;98744.06;4978219;28;20596;-54
2022/08/23 08:59:30;;;;;;;9.97;3.00;;;;;;;23.46;48.12;98753.78;4988991;28;20259;-53
2022/08/23 09:01:58;;;;;;;6.37;2.90;;;;;;;23.56;48.10;98754.03;4984951;28;20703;-52
2022/08/23 09:04:36;;;;;;;8.13;2.90;;;;;;;23.64;47.83;98748.34;5005178;28;20247;-55
2022/08/23 09:07:23;;;;;;;5.90;3.57;;;;;;;23.66;47.68;98750.78;4988050;28;20616;-53
2022/08/23 09:10:05;;;;;;;4.03;3.00;;;;;;;23.76;47.17;98752.84;4989507;28;20254;-55
2022/08/23 09:12:49;;;;;;;17.03;3.30;;;;;;;23.89;46.36;98749.94;4987971;28;20235;-55
2022/08/23 09:15:30;;;;;;;5.50;2.60;;;;;;;23.95;46.97;98753.50;4988562;28;20240;-55
2022/08/23 09:18:01;;;;;;;6.17;2.93;;;;;;;24.05;45.98;98756.41;4985652;28;20289;-54
2022/08/23 09:20:29;;;;;;;8.03;3.13;;;;;;;24.00;46.67;98764.28;4986718;28;20700;-55
2022/08/23 09:23:06;;;;;;;5.97;2.77;;;;;;;23.98;45.93;98751.19;4985533;28;20230;-55
2022/08/23 09:25:35;;;;;;;4.07;2.90;;;;;;;24.10;46.10;98755.72;5002599;28;20289;-54
2022/08/23 09:28:15;;;;;;;7.57;2.43;;;;;;;24.22;45.87;98748.47;4987842;28;20228;-55
2022/08/23 09:30:51;;;;;;;8.13;2.60;;;;;;;24.23;45.62;98747.44;4988474;28;20713;-52
2022/08/23 09:33:21;;;;;;;8.63;3.00;;;;;;;24.30;45.05;98750.78;4970824;28;20239;-54
2022/08/23 09:36:05;;;;;;;6.20;3.10;;;;;;;24.37;46.06;98747.94;4988232;28;20237;-55
2022/08/23 09:38:34;;;;;;;6.03;2.87;;;;;;;24.50;46.48;98746.03;4988235;28;20815;-55
2022/08/23 09:41:19;;;;;;;8.47;3.17;;;;;;;24.65;45.12;98743.66;4987775;28;20235;-53
2022/08/23 09:43:49;;;;;;;6.47;3.00;;;;;;;24.62;44.75;98744.91;4986595;28;20610;-52
2022/08/23 09:46:30;;;;;;;5.37;2.77;;;;;;;24.65;44.41;98748.16;4975943;28;20265;-53
2022/08/23 09:49:23;;;;;;;5.17;2.70;;;;;;;24.70;44.56;98751.75;4985045;28;20226;-55
2022/08/23 09:51:52;;;;;;;5.67;2.90;;;;;;;24.71;43.93;98739.19;5003880;28;20252;-52
2022/08/23 09:54:23;;;;;;;8.23;2.73;;;;;;;24.80;43.83;98740.44;4986686;28;20228;-52
2022/08/23 09:56:54;;;;;;;5.40;2.37;;;;;;;24.86;44.58;98742.16;5002439;28;20232;-51
2022/08/23 09:59:27;;;;;;;5.87;2.63;;;;;;;24.96;43.46;98740.69;4987848;28;20235;-54
2022/08/23 10:02:15;;;;;;;5.73;2.60;;;;;;;25.10;43.31;98743.84;4985744;28;20275;-52
2022/08/23 10:04:45;;;;;;;4.87;2.97;;;;;;;25.10;43.48;98736.66;4986185;28;20787;-52
2022/08/23 10:07:34;;;;;;;5.03;2.60;;;;;;;25.25;42.82;98735.28;4986873;28;20240;-52
2022/08/23 10:10:18;;;;;;;5.20;2.70;;;;;;;25.20;43.13;98734.13;4987473;28;20647;-56
2022/08/23 10:12:46;;;;;;;5.03;2.80;;;;;;;25.34;43.07;98726.59;4991268;28;20927;-52
2022/08/23 10:15:14;;;;;;;6.27;2.63;;;;;;;25.33;42.60;98727.63;4990742;28;20618;-53
2022/08/23 10:17:51;;;;;;;4.53;2.83;;;;;;;25.41;42.64;98717.59;4990616;28;20225;-52
2022/08/23 10:20:31;;;;;;;8.20;3.03;;;;;;;25.49;42.40;98715.31;5007307;28;20247;-52
2022/08/23 10:23:19;;;;;;;6.40;3.10;;;;;;;25.51;42.89;98715.09;5007045;28;20242;-54
2022/08/23 10:25:54;;;;;;;7.37;3.43;;;;;;;25.49;42.58;98718.00;4991042;28;20317;-55
2022/08/23 10:31:36;;;;;;;4.67;2.73;;;;;;;25.66;41.78;98714.47;4966294;28;20229;-52
2022/08/23 10:34:26;;;;;;;7.17;3.07;;;;;;;25.77;41.64;98713.53;4989795;28;20218;-52
2022/08/23 10:37:04;;;;;;;4.53;2.90;;;;;;;25.88;41.14;98708.31;4988743;28;20238;-54
2022/08/23 10:39:32;;;;;;;4.43;2.97;;;;;;;25.87;41.44;98709.38;4981690;28;20578;-54
2022/08/23 10:42:05;;;;;;;5.67;3.17;;;;;;;25.87;41.13;98714.72;4979173;28;21214;-54
2022/08/23 10:44:39;;;;;;;5.13;2.83;;;;;;;25.93;40.92;98708.38;4989722;28;20239;-51
2022/08/23 10:47:18;;;;;;;7.80;2.80;;;;;;;26.08;40.22;98710.41;4987806;28;20328;-52
2022/08/23 10:49:50;;;;;;;4.40;3.03;;;;;;;26.14;40.19;98700.63;4990217;28;20279;-53
2022/08/23 10:52:22;;;;;;;5.50;2.77;;;;;;;26.28;41.11;98703.69;4979248;28;20755;-53
2022/08/23 10:55:05;;;;;;;7.97;3.13;;;;;;;26.37;40.03;98696.81;4990215;28;20231;-50
2022/08/23 10:57:37;;;;;;;4.73;2.80;;;;;;;26.52;39.62;98691.63;4989262;28;20243;-50
2022/08/23 11:00:07;;;;;;;5.43;3.10;;;;;;;26.54;39.07;98694.03;4993455;28;20234;-50
2022/08/23 11:02:44;;;;;;;5.67;3.13;;;;;;;26.47;40.13;98694.25;4987729;28;20231;-52
2022/08/23 11:05:25;;;;;;;6.77;3.60;;;;;;;26.73;39.00;98686.44;4990455;28;20243;-50
2022/08/23 11:08:00;;;;;;;4.40;3.40;;;;;;;26.74;39.10;98692.59;5006304;28;20236;-53
2022/08/23 11:10:34;;;;;;;6.87;3.17;;;;;;;26.75;38.81;98686.16;5006650;28;20238;-53
2022/08/23 11:13:06;;;;;;;6.40;2.97;;;;;;;26.96;38.99;98682.59;4989429;28;20242;-51
2022/08/23 11:15:42;;;;;;;5.70;3.10;;;;;;;27.02;39.40;98686.13;4990498;28;20267;-50
2022/08/23 11:18:12;;;;;;;6.83;3.00;;;;;;;27.16;38.19;98685.66;5005314;28;20683;-50
2022/08/23 11:21:06;;;;;;;5.47;2.80;;;;;;;27.47;38.14;98683.16;4982110;28;20683;-50
2022/08/23 11:23:53;;;;;;;3.93;2.80;;;;;;;27.65;36.81;98681.91;4985251;28;20230;-50
2022/08/23 11:27:05;;;;;;;5.00;2.97;;;;;;;27.68;37.21;98671.50;4989984;28;20253;-51
2022/08/23 11:29:54;;;;;;;4.27;3.00;;;;;;;27.71;37.44;98680.88;4989933;28;20313;-52
2022/08/23 11:32:42;;;;;;;6.53;3.57;;;;;;;27.74;36.75;98683.03;4987151;28;20237;-50
2022/08/23 11:35:35;;;;;;;9.52;3.30;;;;;;;27.88;36.85;98669.94;4990095;28;20234;-50
2022/08/23 11:38:06;;;;;;;6.90;3.13;;;;;;;28.08;36.23;98677.22;4988631;28;20242;-54
2022/08/23 11:41:00;;;;;;;12.43;3.30;;;;;;;28.01;36.65;98674.00;4988638;28;20261;-54
2022/08/23 11:43:36;;;;;;;5.40;2.77;;;;;;;28.02;35.75;98670.25;4989308;28;20243;-54
2022/08/23 11:46:33;;;;;;;4.67;2.60;;;;;;;28.27;36.34;98682.91;4978463;28;20272;-53
2022/08/23 11:49:50;;;;;;;5.73;3.27;;;;;;;28.42;34.71;98678.63;5004497;28;20254;-52
2022/08/23 11:52:41;;;;;;;5.22;3.10;;;;;;;28.31;35.14;98677.00;4968686;28;20613;-53
2022/08/23 11:55:28;;;;;;;5.30;2.93;;;;;;;28.43;36.32;98675.69;4979739;28;20777;-54
2022/08/23 11:58:12;;;;;;;7.90;3.27;;;;;;;28.31;35.45;98667.09;4988368;28;20320;-53
2022/08/23 12:00:56;;;;;;;6.28;2.80;;;;;;;28.40;35.78;98670.88;4990385;28;20233;-54
2022/08/23 12:03:32;;;;;;;4.37;2.80;;;;;;;28.45;35.81;98664.69;4988272;28;20242;-54
2022/08/23 12:06:12;;;;;;;5.25;2.80;;;;;;;28.51;35.17;98676.25;4988797;28;20249;-51
2022/08/23 12:08:54;;;;;;;5.93;2.63;;;;;;;28.58;34.38;98669.53;4991190;28;20325;-51
2022/08/23 12:11:25;;;;;;;10.93;3.35;;;;;;;28.47;34.93;98662.53;4989426;28;20329;-51
2022/08/23 12:14:01;;;;;;;8.00;2.83;;;;;;;28.61;34.80;98664.69;4989899;28;20234;-53
2022/08/23 12:16:34;;;;;;;7.63;3.22;;;;;;;28.75;34.74;98654.19;4989128;28;20256;-53